Main page
METAR-TAF:

METAR-TAF

Airports :

Chandigarh, India

Chandigarh Airport

latitude: 30-40-29N, longitude: 76-47-26E, elevation: 314 m

Current weather observation

The report was made 5 hours and 7 minutes ago, at 15:30 UTC
Wind 4 kt from the North/Northeast
Temperature 29°C
Humidity 27%
Pressure 1008 hPa
Visibility: 6000 m
Few clouds at a height of 3000 ft
Scattered clouds at a height of 10000 ft

METAR: VICG 301530Z 03004KT 6000 FEW030 SCT100 29/08 Q1008 NOSIG

Time: 02:07 (20:37 UTC)


TAF: missing

Weather observations and forecasts of more than 4000 airports (METAR and TAF reports).

The available stations are represented by yellow and red dots on the map.

Hover mouse over dot to see the name of the station.

Then click to see weather observations and forecasts.

To change the map : click on the green buttons with a black cross to zoom in, on the green button with a dash to zoom out, or on the green arrows for adjacent maps.


METAR-TAF: